Hanjin Sanfrancisco — 3FXR — position and weather

sailwx.info

Track history (hours):
 
Tides and Currents Weather Stations Pressure Air Temp Water Temp Dewpoint Dewpoint Depression Visibility Wind Speed Wind Dir Waves Ship Positions

Hanjin Sanfrancisco

Last reported at 2017-Apr-21 17:07 UTC. Time now 2017-Apr-29 15:34 UTC.
Position N 42°17' W 069°48'.

Length 289 m; draft 11.1 m.

Type: Cargo ship. MMSI: 351989000.

Date/timePositionNaut miles runAvg speedWind from/ knotsBaromVisibWave heightAir tempDewpointWater temp
2017-Apr-21 17:07N 42°17' W 069°48'110.3
2017-Apr-21 17:01N 42°17' W 069°50'610.0
2017-Apr-21 16:24N 42°17' W 069°58'4 9.8
2017-Apr-21 15:58N 42°17' W 070°04'610.1
2017-Apr-21 15:21N 42°18' W 070°12'410.2
2017-Apr-21 15:01N 42°18' W 070°17'510.0
2017-Apr-21 14:31N 42°19' W 070°23'1010.1
2017-Apr-21 13:30N 42°19' W 070°37'510.0
2017-Apr-21 13:01N 42°20' W 070°44'510.0
2017-Apr-21 12:30N 42°23' W 070°49'5 9.0
2017-Apr-21 12:00N 42°22' W 070°55'3 5.1
2017-Apr-21 11:29N 42°20' W 070°58'0 0.1
2017-Apr-21 10:59N 42°20' W 070°58'0 0.0
2017-Apr-21 10:29N 42°20' W 070°58'0 0.1
2017-Apr-21 09:59N 42°20' W 070°58'0 0.0
2017-Apr-21 09:29N 42°20' W 070°58'0 0.0
2017-Apr-21 08:59N 42°20' W 070°58'0 0.0
2017-Apr-21 08:29N 42°20' W 070°58'0 0.0
2017-Apr-21 07:47N 42°20' W 070°58'0 0.0
2017-Apr-21 07:29N 42°20' W 070°58'0 0.0
2017-Apr-21 06:59N 42°20' W 070°58'0 0.1
2017-Apr-21 06:30N 42°20' W 070°58'2 4.2
2017-Apr-21 06:00N 42°21' W 071°01'3 6.0
2017-Apr-21 05:30N 42°23' W 071°03'0 0.0
2017-Apr-20 22:56N 42°23' W 071°04'0 0.0
2017-Apr-20 21:35N 42°23' W 071°04'0 0.0
2017-Apr-20 21:29N 42°23' W 071°04'0 0.0
2017-Apr-20 20:59N 42°23' W 071°04'0 0.0
2017-Apr-20 20:23N 42°23' W 071°04'0 0.0
2017-Apr-20 19:59N 42°23' W 071°04'0 0.0
2017-Apr-20 19:02N 42°23' W 071°04'0 0.0
2017-Apr-20 18:59N 42°23' W 071°04'0 0.0
2017-Apr-20 04:05N 42°23' W 071°04'0 0.0
2017-Apr-20 02:23N 42°23' W 071°04'0 0.0
2017-Apr-19 07:20N 42°23' W 071°04'0 0.9
2017-Apr-19 07:00N 42°23' W 071°03'2 4.5
2017-Apr-19 06:30N 42°21' W 071°02'4 7.7
2017-Apr-19 06:00N 42°20' W 070°57'3 6.7
2017-Apr-19 05:31N 42°23' W 070°54'2 4.6
2017-Apr-19 05:01N 42°24' W 070°51'3 5.5
2017-Apr-19 04:30N 42°25' W 070°47'0 0.5
2017-Apr-19 04:00N 42°25' W 070°47'0 0.2
2017-Apr-19 03:29N 42°25' W 070°47'0 0.1
2017-Apr-19 02:59N 42°25' W 070°47'0 0.0
2017-Apr-19 02:30N 42°25' W 070°47'0 0.0
2017-Apr-19 01:59N 42°25' W 070°47'0 0.0
2017-Apr-19 01:29N 42°25' W 070°47'0 0.0
2017-Apr-19 00:59N 42°25' W 070°47'0 0.0
2017-Apr-19 00:27N 42°25' W 070°47'0 0.3
2017-Apr-19 00:00N 42°25' W 070°47'2 3.2
2017-Apr-18 23:30N 42°24' W 070°45'5 9.6
2017-Apr-18 23:01N 42°22' W 070°39'5 9.9
2017-Apr-18 22:30N 42°22' W 070°33'510.2
2017-Apr-18 22:00N 42°21' W 070°26'510.0
2017-Apr-18 21:30N 42°21' W 070°19'510.0
2017-Apr-18 21:01N 42°20' W 070°12'510.1
2017-Apr-18 20:28N 42°20' W 070°05'810.2
2017-Apr-18 19:39N 42°21' W 069°54'  
Track history (hours):
 
Tides and Currents Weather Stations Pressure Air Temp Water Temp Dewpoint Dewpoint Depression Visibility Wind Speed Wind Dir Waves Ship Positions

Hanjin Sanfrancisco

Last reported at 2017-Apr-21 17:07 UTC. Time now 2017-Apr-29 15:34 UTC.
Position N 42°17' W 069°48'.

Length 289 m; draft 11.1 m.

Type: Cargo ship. MMSI: 351989000.

Date/timePositionNaut miles runAvg speedWind from/ knotsBaromVisibWave heightAir tempDewpointWater temp
2017-Apr-21 17:07N 42°17' W 069°48'110.3
2017-Apr-21 17:01N 42°17' W 069°50'610.0
2017-Apr-21 16:24N 42°17' W 069°58'4 9.8
2017-Apr-21 15:58N 42°17' W 070°04'610.1
2017-Apr-21 15:21N 42°18' W 070°12'410.2
2017-Apr-21 15:01N 42°18' W 070°17'510.0
2017-Apr-21 14:31N 42°19' W 070°23'1010.1
2017-Apr-21 13:30N 42°19' W 070°37'510.0
2017-Apr-21 13:01N 42°20' W 070°44'510.0
2017-Apr-21 12:30N 42°23' W 070°49'5 9.0
2017-Apr-21 12:00N 42°22' W 070°55'3 5.1
2017-Apr-21 11:29N 42°20' W 070°58'0 0.1
2017-Apr-21 10:59N 42°20' W 070°58'0 0.0
2017-Apr-21 10:29N 42°20' W 070°58'0 0.1
2017-Apr-21 09:59N 42°20' W 070°58'0 0.0
2017-Apr-21 09:29N 42°20' W 070°58'0 0.0
2017-Apr-21 08:59N 42°20' W 070°58'0 0.0
2017-Apr-21 08:29N 42°20' W 070°58'0 0.0
2017-Apr-21 07:47N 42°20' W 070°58'0 0.0
2017-Apr-21 07:29N 42°20' W 070°58'0 0.0
2017-Apr-21 06:59N 42°20' W 070°58'0 0.1
2017-Apr-21 06:30N 42°20' W 070°58'2 4.2
2017-Apr-21 06:00N 42°21' W 071°01'3 6.0
2017-Apr-21 05:30N 42°23' W 071°03'0 0.0
2017-Apr-20 22:56N 42°23' W 071°04'0 0.0
2017-Apr-20 21:35N 42°23' W 071°04'0 0.0
2017-Apr-20 21:29N 42°23' W 071°04'0 0.0
2017-Apr-20 20:59N 42°23' W 071°04'0 0.0
2017-Apr-20 20:23N 42°23' W 071°04'0 0.0
2017-Apr-20 19:59N 42°23' W 071°04'0 0.0
2017-Apr-20 19:02N 42°23' W 071°04'0 0.0
2017-Apr-20 18:59N 42°23' W 071°04'0 0.0
2017-Apr-20 04:05N 42°23' W 071°04'0 0.0
2017-Apr-20 02:23N 42°23' W 071°04'0 0.0
2017-Apr-19 07:20N 42°23' W 071°04'0 0.9
2017-Apr-19 07:00N 42°23' W 071°03'2 4.5
2017-Apr-19 06:30N 42°21' W 071°02'4 7.7
2017-Apr-19 06:00N 42°20' W 070°57'3 6.7
2017-Apr-19 05:31N 42°23' W 070°54'2 4.6
2017-Apr-19 05:01N 42°24' W 070°51'3 5.5
2017-Apr-19 04:30N 42°25' W 070°47'0 0.5
2017-Apr-19 04:00N 42°25' W 070°47'0 0.2
2017-Apr-19 03:29N 42°25' W 070°47'0 0.1
2017-Apr-19 02:59N 42°25' W 070°47'0 0.0
2017-Apr-19 02:30N 42°25' W 070°47'0 0.0
2017-Apr-19 01:59N 42°25' W 070°47'0 0.0
2017-Apr-19 01:29N 42°25' W 070°47'0 0.0
2017-Apr-19 00:59N 42°25' W 070°47'0 0.0
2017-Apr-19 00:27N 42°25' W 070°47'0 0.3
2017-Apr-19 00:00N 42°25' W 070°47'2 3.2
2017-Apr-18 23:30N 42°24' W 070°45'5 9.6
2017-Apr-18 23:01N 42°22' W 070°39'5 9.9
2017-Apr-18 22:30N 42°22' W 070°33'510.2
2017-Apr-18 22:00N 42°21' W 070°26'510.0
2017-Apr-18 21:30N 42°21' W 070°19'510.0
2017-Apr-18 21:01N 42°20' W 070°12'510.1
2017-Apr-18 20:28N 42°20' W 070°05'810.2
2017-Apr-18 19:39N 42°21' W 069°54'  

Dump ship's entire track history